Time;durP1;ratioP1;P1;durP2;ratioP2;P2;SDS_P1;SDS_P2;PMS_P1;PMS_P2;Temp;Humidity;BMP_temperature;BMP_pressure;BME280_temperature;BME280_humidity;BME280_pressure;Samples;Min_cycle;Max_cycle;Signal;HPM_P1;HPM_P2
2022/06/21 00:01:01;;;;;;;11.83;7.72;;;;;;;24.02;99.18;99963.24;1693007;84;21062;-72
2022/06/21 00:03:30;;;;;;;14.75;8.80;;;;;;;24.09;99.04;99955.53;1691803;83;21015;-71
2022/06/21 00:05:58;;;;;;;11.25;8.90;;;;;;;24.19;98.88;99955.64;1694920;83;21027;-72
2022/06/21 00:08:31;;;;;;;11.55;9.25;;;;;;;24.06;99.72;99950.59;1687557;83;21178;-71
2022/06/21 00:10:59;;;;;;;15.98;9.70;;;;;;;24.09;99.46;99948.95;1690089;84;21573;-71
2022/06/21 00:13:32;;;;;;;13.65;9.43;;;;;;;24.15;98.93;99949.09;1690413;84;21043;-72
2022/06/21 00:16:04;;;;;;;15.80;10.38;;;;;;;24.08;99.52;99941.53;1693110;84;21079;-71
2022/06/21 00:18:37;;;;;;;14.53;9.73;;;;;;;24.10;99.18;99943.50;1687529;83;21044;-72
2022/06/21 00:21:27;;;;;;;14.85;9.68;;;;;;;24.29;98.77;99940.14;1692567;83;21459;-71
2022/06/21 00:23:55;;;;;;;13.88;8.98;;;;;;;24.14;98.81;99936.09;1689083;83;21093;-71
2022/06/21 00:26:26;;;;;;;15.45;8.20;;;;;;;24.14;98.59;99937.41;1693861;83;21137;-71
2022/06/21 00:28:55;;;;;;;11.85;8.43;;;;;;;24.08;98.28;99931.02;1685636;84;21024;-71
2022/06/21 00:31:33;;;;;;;18.17;9.53;;;;;;;24.04;98.41;99934.97;1686723;84;21086;-71
2022/06/21 00:34:14;;;;;;;16.60;9.13;;;;;;;23.92;98.16;99931.06;1685645;83;21063;-71
2022/06/21 00:36:42;;;;;;;14.03;8.98;;;;;;;24.02;97.60;99930.88;1686943;83;21055;-71
2022/06/21 00:39:13;;;;;;;16.32;8.70;;;;;;;24.00;96.55;99924.47;1690022;84;21044;-71
2022/06/21 00:41:51;;;;;;;12.43;9.20;;;;;;;23.89;96.94;99920.91;1690850;83;21031;-71
2022/06/21 00:44:27;;;;;;;12.82;8.65;;;;;;;23.91;96.84;99918.43;1682016;83;21356;-71
2022/06/21 00:47:05;;;;;;;13.15;9.40;;;;;;;23.87;97.15;99918.44;1689409;83;21076;-71
2022/06/21 00:49:37;;;;;;;16.52;9.10;;;;;;;23.72;98.45;99915.66;1693265;84;21051;-71
2022/06/21 00:52:24;;;;;;;16.32;9.50;;;;;;;23.69;98.70;99918.61;1692126;84;21524;-71
2022/06/21 00:55:00;;;;;;;13.80;9.15;;;;;;;23.48;99.45;99924.39;1691084;83;21036;-71
2022/06/21 00:57:51;;;;;;;11.95;8.93;;;;;;;23.48;100.00;99923.55;1687116;83;21083;-71
2022/06/21 01:00:42;;;;;;;17.10;8.98;;;;;;;23.56;98.12;99917.82;1689575;83;21027;-71
2022/06/21 01:03:13;;;;;;;14.50;8.83;;;;;;;23.65;96.46;99913.86;1681096;83;21030;-71
2022/06/21 01:05:45;;;;;;;12.43;8.38;;;;;;;23.66;96.97;99908.92;1660628;85;21005;-71
2022/06/21 01:08:17;;;;;;;14.30;8.70;;;;;;;23.66;96.91;99907.13;1690635;83;21076;-71
2022/06/21 01:10:49;;;;;;;12.70;8.80;;;;;;;23.68;96.89;99908.26;1687126;83;21079;-71
2022/06/21 01:13:21;;;;;;;14.40;9.45;;;;;;;23.68;96.82;99909.57;1689240;83;21035;-71
2022/06/21 01:15:50;;;;;;;11.57;8.55;;;;;;;23.69;97.04;99908.60;1687804;83;21520;-72
2022/06/21 01:18:21;;;;;;;16.90;9.05;;;;;;;23.63;97.78;99913.21;1694620;83;21039;-71
2022/06/21 01:20:56;;;;;;;14.00;8.00;;;;;;;23.56;97.08;99909.09;1692388;83;21099;-71
2022/06/21 01:23:55;;;;;;;11.43;8.53;;;;;;;23.55;96.10;99900.90;1695164;83;21047;-71
2022/06/21 01:26:55;;;;;;;13.08;7.95;;;;;;;23.55;96.30;99911.41;1686315;84;21047;-71
2022/06/21 01:29:28;;;;;;;11.28;7.47;;;;;;;23.43;96.25;99904.86;1664471;85;21591;-71
2022/06/21 01:31:59;;;;;;;15.23;8.53;;;;;;;23.50;95.58;99908.45;1693289;83;21040;-71
2022/06/21 01:34:28;;;;;;;11.30;8.38;;;;;;;23.50;95.20;99909.29;1692734;83;21035;-72
2022/06/21 01:37:12;;;;;;;10.05;8.28;;;;;;;23.52;94.85;99903.84;1691749;84;20992;-71
2022/06/21 01:40:19;;;;;;;13.10;8.10;;;;;;;23.53;94.21;99906.31;1686778;83;21115;-71
2022/06/21 01:42:50;;;;;;;12.43;8.20;;;;;;;23.48;95.46;99908.64;1685558;83;21095;-71
2022/06/21 01:45:27;;;;;;;9.55;7.30;;;;;;;23.36;93.98;99905.52;1689277;83;21039;-71
2022/06/21 01:48:25;;;;;;;13.98;7.67;;;;;;;23.31;94.63;99901.74;1688030;84;21092;-71
2022/06/21 01:50:57;;;;;;;16.55;7.50;;;;;;;23.19;94.71;99897.31;1689793;84;21068;-71
2022/06/21 01:53:26;;;;;;;13.85;7.50;;;;;;;23.19;94.11;99900.78;1664405;84;21023;-71
2022/06/21 01:56:01;;;;;;;11.08;7.75;;;;;;;23.24;93.84;99896.34;1689580;83;21076;-71
2022/06/21 01:58:33;;;;;;;11.55;7.90;;;;;;;23.22;94.09;99897.50;1685576;84;21630;-71
2022/06/21 02:01:09;;;;;;;11.60;7.67;;;;;;;23.21;94.30;99891.41;1690990;83;21070;-71
2022/06/21 02:03:39;;;;;;;11.33;7.55;;;;;;;23.33;92.92;99895.83;1693290;84;21082;-71
2022/06/21 02:06:12;;;;;;;12.33;8.18;;;;;;;23.23;92.18;99897.81;1691872;83;21031;-71
2022/06/21 02:08:56;;;;;;;12.90;8.10;;;;;;;23.22;92.89;99893.56;1689171;83;21087;-71
2022/06/21 02:11:32;;;;;;;13.20;7.80;;;;;;;23.16;93.52;99890.59;1696722;84;21082;-71
2022/06/21 02:16:53;;;;;;;13.48;7.83;;;;;;;23.16;93.88;99881.91;1689490;83;21072;-71
2022/06/21 02:19:32;;;;;;;14.13;8.33;;;;;;;23.19;94.15;99885.50;1691117;83;21527;-71
2022/06/21 02:21:59;;;;;;;14.25;8.80;;;;;;;23.26;93.22;99890.43;1692100;84;21087;-71
2022/06/21 02:24:29;;;;;;;14.93;8.53;;;;;;;23.30;92.81;99885.17;1688229;85;21060;-71
2022/06/21 02:26:59;;;;;;;12.45;8.65;;;;;;;23.33;91.99;99884.02;1686862;83;21071;-71
2022/06/21 02:29:30;;;;;;;12.95;8.20;;;;;;;23.34;91.62;99881.23;1694406;83;21102;-71
2022/06/21 02:31:59;;;;;;;12.28;8.60;;;;;;;23.39;90.87;99885.48;1689582;83;21189;-71
2022/06/21 02:34:34;;;;;;;13.43;8.65;;;;;;;23.33;91.31;99876.14;1690058;84;21586;-71
2022/06/21 02:37:03;;;;;;;10.40;8.58;;;;;;;23.39;91.24;99877.59;1690166;83;21201;-71
2022/06/21 02:39:33;;;;;;;14.35;8.75;;;;;;;23.45;91.05;99873.99;1663744;84;21068;-71
2022/06/21 02:42:09;;;;;;;13.45;8.38;;;;;;;23.46;91.24;99875.14;1664800;85;21011;-70
2022/06/21 02:44:53;;;;;;;14.38;9.03;;;;;;;23.58;90.21;99868.55;1686747;85;21551;-70
2022/06/21 02:47:34;;;;;;;15.88;9.40;;;;;;;23.57;89.72;99864.77;1687662;84;21484;-71
2022/06/21 02:50:22;;;;;;;14.80;8.90;;;;;;;23.57;89.73;99871.34;1686651;84;21099;-70
2022/06/21 02:52:53;;;;;;;13.28;8.43;;;;;;;23.66;89.66;99869.03;1666410;84;21071;-70
2022/06/21 02:55:48;;;;;;;10.15;8.53;;;;;;;23.88;88.29;99868.81;1685925;83;21158;-70
2022/06/21 02:58:26;;;;;;;10.82;8.30;;;;;;;23.88;88.50;99868.81;1689481;83;21066;-70
2022/06/21 03:00:54;;;;;;;12.03;8.53;;;;;;;23.97;88.72;99863.05;1691895;83;21149;-70
2022/06/21 03:03:26;;;;;;;11.88;8.55;;;;;;;24.12;88.35;99863.95;1691046;84;21055;-70
2022/06/21 03:05:58;;;;;;;14.53;8.25;;;;;;;24.22;87.30;99869.00;1686518;83;21166;-71
2022/06/21 03:08:30;;;;;;;10.60;7.92;;;;;;;24.19;87.80;99867.55;1687679;84;21544;-70
2022/06/21 03:10:58;;;;;;;13.30;8.45;;;;;;;24.32;85.86;99868.30;1691460;83;21053;-70
2022/06/21 03:13:35;;;;;;;11.08;8.63;;;;;;;24.37;85.81;99871.23;1659564;84;21161;-71
2022/06/21 03:16:08;;;;;;;12.33;8.55;;;;;;;24.39;84.92;99861.84;1693568;83;21511;-71
2022/06/21 03:18:50;;;;;;;16.82;8.83;;;;;;;24.42;84.83;99864.14;1687841;84;21020;-71
2022/06/21 03:21:26;;;;;;;10.08;8.35;;;;;;;24.38;85.29;99858.39;1689421;83;21526;-70
2022/06/21 03:23:54;;;;;;;12.55;8.45;;;;;;;24.45;85.25;99856.38;1689402;84;21107;-71
2022/06/21 03:26:21;;;;;;;11.80;8.80;;;;;;;24.56;85.13;99855.52;1686586;83;21020;-71
2022/06/21 03:28:52;;;;;;;14.90;8.50;;;;;;;24.77;85.12;99850.92;1690978;83;21048;-70
2022/06/21 03:31:38;;;;;;;13.65;8.55;;;;;;;24.86;83.66;99846.91;1689179;84;21052;-70
2022/06/21 03:34:16;;;;;;;13.83;8.45;;;;;;;24.94;83.94;99851.64;1689767;84;21141;-71
2022/06/21 03:36:43;;;;;;;12.00;7.50;;;;;;;25.04;83.58;99851.39;1689623;84;21115;-71
2022/06/21 03:42:16;;;;;;;10.63;8.18;;;;;;;25.27;83.29;99851.88;1690131;84;21086;-71
2022/06/21 03:45:00;;;;;;;13.08;8.53;;;;;;;25.45;81.96;99849.72;1691666;83;21056;-71
2022/06/21 03:47:47;;;;;;;14.20;8.75;;;;;;;25.33;81.79;99848.02;1682349;84;21079;-71
2022/06/21 03:50:23;;;;;;;9.83;8.28;;;;;;;25.52;80.58;99842.70;1694544;83;21047;-71
2022/06/21 03:53:17;;;;;;;12.53;8.88;;;;;;;25.61;80.72;99849.20;1681129;84;21176;-70
2022/06/21 03:56:01;;;;;;;11.08;8.20;;;;;;;25.73;80.69;99847.75;1687705;83;21023;-71
2022/06/21 03:58:58;;;;;;;12.78;8.50;;;;;;;25.92;81.00;99838.00;1691789;84;21115;-71
2022/06/21 04:01:37;;;;;;;12.80;8.43;;;;;;;26.01;79.38;99837.39;1691380;83;21031;-71
2022/06/21 04:04:18;;;;;;;11.68;9.05;;;;;;;26.26;78.81;99843.17;1686381;84;21036;-71
2022/06/21 04:07:04;;;;;;;13.53;8.93;;;;;;;26.40;78.73;99840.18;1691520;84;21543;-71
2022/06/21 04:09:52;;;;;;;12.70;8.83;;;;;;;26.36;78.29;99837.09;1689927;83;21095;-71
2022/06/21 04:12:42;;;;;;;12.85;9.25;;;;;;;26.70;77.68;99833.00;1689918;84;21051;-71
2022/06/21 04:15:26;;;;;;;11.60;9.33;;;;;;;26.81;77.74;99831.66;1687390;83;21574;-71
2022/06/21 04:18:09;;;;;;;19.45;8.70;;;;;;;26.92;77.38;99835.09;1678719;84;21098;-71
2022/06/21 04:21:00;;;;;;;15.60;8.10;;;;;;;26.91;76.94;99833.47;1689990;84;21071;-71
2022/06/21 04:23:38;;;;;;;13.50;7.87;;;;;;;26.95;76.90;99829.95;1691290;84;21048;-71
2022/06/21 04:26:17;;;;;;;13.98;7.58;;;;;;;27.06;76.84;99831.24;1690994;83;21075;-71
2022/06/21 04:29:01;;;;;;;11.95;6.45;;;;;;;27.25;77.04;99833.25;1691309;83;21012;-71
2022/06/21 04:31:42;;;;;;;14.03;6.67;;;;;;;27.54;73.44;99830.07;1688050;83;21115;-71
2022/06/21 04:34:26;;;;;;;13.58;5.67;;;;;;;27.77;73.60;99826.61;1695989;83;21052;-71
2022/06/21 04:37:08;;;;;;;5.87;5.33;;;;;;;27.84;72.24;99828.46;1690576;83;21043;-71
2022/06/21 04:39:57;;;;;;;10.25;5.60;;;;;;;28.10;69.50;99822.48;1695219;84;21027;-71
2022/06/21 04:42:36;;;;;;;12.75;5.85;;;;;;;28.28;68.64;99828.03;1685959;83;21126;-71
2022/06/21 04:45:33;;;;;;;13.40;5.83;;;;;;;28.32;68.26;99823.16;1692388;83;21504;-70
2022/06/21 04:48:42;;;;;;;12.30;5.58;;;;;;;28.44;67.14;99822.88;1685270;84;21019;-72
2022/06/21 04:51:23;;;;;;;8.85;5.60;;;;;;;28.55;66.94;99824.16;1697453;83;21602;-71
2022/06/21 04:53:58;;;;;;;11.45;5.97;;;;;;;28.71;67.11;99818.47;1687362;84;21091;-71
2022/06/21 04:56:49;;;;;;;8.00;6.40;;;;;;;28.66;66.84;99817.44;1684001;83;21066;-71
2022/06/21 04:59:38;;;;;;;9.83;6.60;;;;;;;28.85;67.88;99823.23;1688301;84;21040;-71
2022/06/21 05:02:08;;;;;;;16.02;6.75;;;;;;;29.00;66.37;99823.56;1692204;84;21094;-71
2022/06/21 05:04:39;;;;;;;11.65;6.35;;;;;;;29.04;67.59;99825.59;1691213;83;21603;-71
2022/06/21 05:07:11;;;;;;;11.28;6.45;;;;;;;29.19;66.10;99825.39;1694857;83;21062;-71
2022/06/21 05:09:42;;;;;;;16.27;6.67;;;;;;;29.59;65.71;99823.98;1692643;83;21040;-71
2022/06/21 05:12:24;;;;;;;11.93;6.45;;;;;;;29.79;65.48;99823.14;1691629;84;21027;-71
2022/06/21 05:15:01;;;;;;;12.00;6.47;;;;;;;30.00;64.75;99819.36;1692358;84;21523;-71
2022/06/21 05:17:29;;;;;;;11.60;6.75;;;;;;;30.23;63.57;99820.98;1686178;84;21035;-71
2022/06/21 05:20:04;;;;;;;12.20;6.72;;;;;;;30.39;63.45;99818.33;1693448;83;21078;-71
2022/06/21 05:22:38;;;;;;;9.45;6.50;;;;;;;30.41;62.90;99818.94;1690079;83;21098;-71
2022/06/21 05:25:35;;;;;;;9.98;6.62;;;;;;;30.61;62.56;99810.02;1690728;84;21084;-71
2022/06/21 05:28:29;;;;;;;12.18;6.00;;;;;;;30.58;64.95;99800.66;1692684;84;21080;-71
2022/06/21 05:31:04;;;;;;;8.25;6.08;;;;;;;30.61;63.83;99797.55;1692244;83;21165;-71
2022/06/21 05:33:39;;;;;;;10.60;5.83;;;;;;;30.72;63.91;99794.20;1694892;84;21095;-71
2022/06/21 05:36:11;;;;;;;11.22;6.17;;;;;;;30.86;63.07;99793.57;1683857;83;21540;-71
2022/06/21 05:38:58;;;;;;;9.03;5.58;;;;;;;31.16;62.58;99791.56;1691529;83;21067;-71
2022/06/21 05:41:30;;;;;;;7.37;6.08;;;;;;;31.35;62.91;99787.08;1692795;83;21531;-71
2022/06/21 05:44:14;;;;;;;7.80;5.35;;;;;;;31.40;62.47;99791.73;1695593;84;21484;-71
2022/06/21 05:46:52;;;;;;;8.83;5.75;;;;;;;31.46;62.12;99773.05;1693153;83;21051;-71
2022/06/21 05:49:27;;;;;;;9.40;5.83;;;;;;;31.76;60.45;99782.13;1691502;83;21535;-71
2022/06/21 05:52:00;;;;;;;11.85;5.53;;;;;;;32.40;58.61;99772.64;1694881;83;21065;-71
2022/06/21 05:54:48;;;;;;;8.93;5.40;;;;;;;32.40;58.61;99772.64;1692031;84;20999;-71
2022/06/21 05:57:19;;;;;;;10.48;5.45;;;;;;;32.05;58.09;99768.02;1680392;83;21812;-71
2022/06/21 05:59:47;;;;;;;9.33;5.25;;;;;;;32.16;58.97;99763.78;1692654;83;21064;-71
2022/06/21 06:02:44;;;;;;;9.50;5.00;;;;;;;32.06;60.32;99765.66;1691763;83;21516;-71
2022/06/21 06:05:31;;;;;;;7.50;5.30;;;;;;;31.96;61.22;99763.23;1691570;83;21043;-71
2022/06/21 06:08:15;;;;;;;7.00;4.83;;;;;;;32.39;58.48;99761.67;1690958;83;21595;-72
2022/06/21 06:10:44;;;;;;;;;;;;;;;32.73;57.65;99759.31;1692714;83;21086;-72
2022/06/21 06:13:19;;;;;;;5.37;4.17;;;;;;;32.84;54.67;99757.14;1685675;83;20419;-72
2022/06/21 06:15:59;;;;;;;7.05;3.80;;;;;;;33.17;53.66;99758.94;1685932;84;21036;-72
2022/06/21 06:18:50;;;;;;;5.78;3.50;;;;;;;33.57;51.58;99760.28;1689523;83;21076;-72
2022/06/21 06:21:31;;;;;;;5.97;3.50;;;;;;;33.56;51.24;99752.02;1691089;83;21015;-71
2022/06/21 06:24:22;;;;;;;9.05;3.72;;;;;;;33.62;50.94;99755.59;1683947;84;20999;-73
2022/06/21 06:26:54;;;;;;;8.70;4.17;;;;;;;33.81;50.50;99750.36;1691645;83;21555;-71
2022/06/21 06:29:32;;;;;;;7.28;4.55;;;;;;;33.85;50.36;99755.50;1695246;84;22825;-71
2022/06/21 06:32:20;;;;;;;4.60;4.20;;;;;;;34.03;51.26;99748.34;1677802;84;21099;-71
2022/06/21 06:34:52;;;;;;;6.17;4.15;;;;;;;33.97;52.28;99742.10;1683730;83;21044;-70
2022/06/21 06:37:41;;;;;;;8.05;4.00;;;;;;;33.92;52.76;99742.00;1686674;84;21015;-71
2022/06/21 06:40:19;;;;;;;5.50;4.30;;;;;;;33.98;52.91;99738.36;1680810;85;21615;-71
2022/06/21 06:42:51;;;;;;;5.97;3.50;;;;;;;34.35;50.51;99740.63;1680938;84;21063;-71
2022/06/21 06:45:21;;;;;;;5.20;3.40;;;;;;;34.31;50.88;99735.48;1681322;85;21079;-71
2022/06/21 06:47:52;;;;;;;4.33;3.02;;;;;;;34.12;49.69;99731.66;1684481;84;21024;-71
2022/06/21 06:50:33;;;;;;;5.97;3.27;;;;;;;34.55;46.83;99732.63;1682375;85;21031;-71
2022/06/21 06:53:17;;;;;;;4.67;3.40;;;;;;;34.70;46.76;99725.67;1678081;85;21120;-71
2022/06/21 06:56:05;;;;;;;4.97;3.08;;;;;;;34.95;48.26;99731.08;1678763;84;21052;-71
2022/06/21 06:58:57;;;;;;;3.47;3.17;;;;;;;34.99;48.52;99730.06;1684358;84;21075;-71
2022/06/21 07:01:47;;;;;;;4.15;3.00;;;;;;;35.05;47.38;99721.84;1683374;84;20996;-71
2022/06/21 07:04:17;;;;;;;6.62;2.85;;;;;;;35.05;48.54;99715.69;1639984;86;21087;-71
2022/06/21 07:06:56;;;;;;;8.05;3.20;;;;;;;35.02;47.39;99722.89;1679913;84;21079;-71
2022/06/21 07:09:29;;;;;;;9.65;3.00;;;;;;;35.22;46.32;99708.45;1680538;84;21519;-71
2022/06/21 07:12:22;;;;;;;4.93;2.50;;;;;;;35.21;44.10;99723.41;1682900;84;21033;-71
2022/06/21 07:14:51;;;;;;;3.83;2.30;;;;;;;35.60;42.06;99713.39;1680212;85;21040;-71
2022/06/21 07:17:44;;;;;;;3.35;2.80;;;;;;;35.77;40.83;99716.52;1680346;84;21643;-70
2022/06/21 07:20:20;;;;;;;5.33;2.60;;;;;;;35.78;41.58;99719.48;1683031;84;21076;-71
2022/06/21 07:22:48;;;;;;;5.05;2.45;;;;;;;35.96;41.56;99711.08;1685747;84;21067;-71
2022/06/21 07:25:26;;;;;;;2.72;2.47;;;;;;;35.95;42.09;99706.80;1687436;84;21062;-70
2022/06/21 07:27:58;;;;;;;3.42;2.60;;;;;;;35.93;40.14;99706.25;1690959;83;21074;-71
2022/06/21 07:30:31;;;;;;;7.00;2.50;;;;;;;35.90;40.26;99704.06;1690404;83;21094;-71
2022/06/21 07:33:03;;;;;;;5.05;2.85;;;;;;;36.07;40.60;99701.25;1668616;84;21078;-71
2022/06/21 07:35:35;;;;;;;4.78;2.60;;;;;;;36.35;40.63;99704.16;1685282;83;21060;-70
2022/06/21 07:38:20;;;;;;;5.25;2.52;;;;;;;36.39;41.28;99695.88;1678786;84;21059;-70
2022/06/21 07:40:55;;;;;;;4.40;2.60;;;;;;;36.08;40.03;99696.98;1688115;84;21043;-71
2022/06/21 07:43:37;;;;;;;4.05;2.70;;;;;;;36.16;40.63;99693.59;1690487;83;21126;-71
2022/06/21 07:46:07;;;;;;;5.15;2.50;;;;;;;36.22;40.84;99697.92;1693978;84;21026;-71
2022/06/21 07:48:45;;;;;;;4.55;2.80;;;;;;;36.34;39.01;99687.83;1688664;83;21078;-70
2022/06/21 07:51:39;;;;;;;3.90;2.50;;;;;;;36.24;39.89;99689.89;1692129;83;21012;-71
2022/06/21 07:54:09;;;;;;;;;;;;;;;36.38;39.30;99690.27;1689483;83;21095;-71
2022/06/21 07:56:54;;;;;;;4.20;2.60;;;;;;;36.65;40.90;99684.00;1688230;84;20127;-71
2022/06/21 07:59:26;;;;;;;3.30;2.50;;;;;;;36.68;40.04;99684.30;1689547;83;21133;-70
2022/06/21 08:08:33;;;;;;;5.45;2.77;;;;;;;36.49;39.01;99682.54;1690102;84;21481;-71
2022/06/21 08:11:17;;;;;;;6.55;2.70;;;;;;;36.86;38.35;99678.19;1690051;84;21024;-71
2022/06/21 08:13:46;;;;;;;4.40;2.77;;;;;;;36.39;37.93;99671.76;1682634;84;21040;-71
2022/06/21 08:16:18;;;;;;;4.28;2.65;;;;;;;36.64;38.02;99672.99;1687174;83;21083;-72
2022/06/21 08:18:56;;;;;;;4.35;2.83;;;;;;;36.67;37.08;99673.83;1690912;84;21087;-72
2022/06/21 08:21:31;;;;;;;3.92;2.37;;;;;;;36.81;37.66;99666.12;1691510;84;21078;-71
2022/06/21 08:24:12;;;;;;;4.97;2.60;;;;;;;36.64;37.28;99660.42;1689684;84;21610;-72
2022/06/21 08:27:18;;;;;;;3.72;2.40;;;;;;;36.71;37.34;99654.81;1689154;84;21019;-72
2022/06/21 08:30:00;;;;;;;5.25;2.33;;;;;;;36.96;36.78;99657.31;1684454;84;21066;-71
2022/06/21 08:32:50;;;;;;;6.62;2.95;;;;;;;37.25;38.50;99646.98;1666205;85;21118;-71
2022/06/21 08:35:29;;;;;;;4.75;2.30;;;;;;;37.26;38.96;99646.69;1687314;84;21493;-71
2022/06/21 08:38:23;;;;;;;3.37;2.33;;;;;;;36.96;37.94;99650.61;1687475;84;21092;-71
2022/06/21 08:44:11;;;;;;;4.20;2.60;;;;;;;37.12;38.23;99632.71;1687057;83;21047;-71
2022/06/21 08:47:08;;;;;;;5.40;3.00;;;;;;;37.08;38.39;99635.87;1684901;84;21091;-71
2022/06/21 08:49:54;;;;;;;4.33;2.40;;;;;;;37.12;38.23;99629.48;1688620;84;21744;-71
2022/06/21 08:52:45;;;;;;;4.28;2.87;;;;;;;37.10;38.03;99635.63;1688978;83;21151;-72
2022/06/21 08:55:37;;;;;;;3.65;2.33;;;;;;;36.94;37.04;99628.61;1687231;84;20983;-71
2022/06/21 08:58:22;;;;;;;3.20;2.60;;;;;;;36.68;36.48;99621.80;1688191;84;21081;-71
2022/06/21 09:01:01;;;;;;;3.00;2.52;;;;;;;36.72;37.78;99615.38;1691097;84;21027;-71
2022/06/21 09:04:02;;;;;;;5.92;2.58;;;;;;;37.12;36.63;99616.61;1693473;84;21071;-71
2022/06/21 09:07:14;;;;;;;5.78;2.90;;;;;;;37.05;36.81;99610.14;1673348;84;21099;-72
2022/06/21 09:10:22;;;;;;;4.95;2.80;;;;;;;37.25;36.50;99602.70;1655224;86;21055;-71
2022/06/21 09:13:21;;;;;;;3.95;2.80;;;;;;;36.94;37.67;99606.60;1686381;84;21052;-71
2022/06/21 09:16:11;;;;;;;4.72;2.77;;;;;;;36.88;36.86;99602.30;1689967;84;21095;-71
2022/06/21 09:19:23;;;;;;;7.00;2.70;;;;;;;36.91;35.92;99592.94;1693063;84;21543;-71
2022/06/21 09:22:21;;;;;;;4.85;2.50;;;;;;;37.06;35.16;99592.41;1686470;84;21041;-72
2022/06/21 09:25:20;;;;;;;5.30;2.75;;;;;;;37.32;36.02;99584.98;1688495;84;21135;-71
2022/06/21 09:27:51;;;;;;;2.70;2.50;;;;;;;37.05;35.77;99584.11;1683509;83;21094;-72
2022/06/21 09:30:41;;;;;;;5.85;2.87;;;;;;;37.35;36.29;99567.81;1690796;84;20995;-71
2022/06/21 09:33:20;;;;;;;3.35;2.42;;;;;;;37.53;36.06;99563.76;1691303;84;21176;-71
2022/06/21 09:36:15;;;;;;;4.20;2.72;;;;;;;37.33;36.34;99559.22;1694629;84;21589;-72
2022/06/21 09:39:05;;;;;;;4.05;2.77;;;;;;;37.57;36.42;99568.86;1690905;84;21039;-72
2022/06/21 09:41:37;;;;;;;5.83;2.67;;;;;;;37.37;35.62;99561.64;1684913;84;21158;-71
2022/06/21 09:44:13;;;;;;;3.00;2.65;;;;;;;37.57;36.14;99556.77;1694986;84;21535;-71
2022/06/21 09:47:04;;;;;;;4.62;3.00;;;;;;;37.23;36.28;99556.53;1688638;84;21087;-71
2022/06/21 09:50:03;;;;;;;5.50;2.70;;;;;;;37.05;36.42;99552.45;1686114;84;21091;-71
2022/06/21 09:53:07;;;;;;;3.98;2.87;;;;;;;37.38;37.32;99550.36;1684995;83;21047;-72
2022/06/21 09:55:44;;;;;;;3.00;2.58;;;;;;;37.58;36.40;99548.20;1686871;84;21102;-71
2022/06/21 09:58:31;;;;;;;3.72;2.65;;;;;;;37.65;37.21;99528.61;1688376;84;21020;-71
2022/06/21 10:01:19;;;;;;;3.27;2.52;;;;;;;37.63;36.69;99546.33;1687795;84;21036;-71
2022/06/21 10:04:25;;;;;;;6.00;2.60;;;;;;;37.96;36.88;99546.00;1689045;84;21048;-71
2022/06/21 10:07:18;;;;;;;3.17;2.70;;;;;;;38.01;36.37;99538.73;1680411;84;21071;-71
2022/06/21 10:10:12;;;;;;;6.60;2.80;;;;;;;37.66;36.80;99537.74;1652882;85;21127;-71
2022/06/21 10:12:54;;;;;;;6.10;2.50;;;;;;;37.73;36.10;99526.71;1679916;84;21064;-71
2022/06/21 10:15:39;;;;;;;3.52;2.50;;;;;;;38.02;36.71;99522.89;1677494;85;21069;-71
2022/06/21 10:18:30;;;;;;;6.97;2.90;;;;;;;38.27;37.74;99522.02;1678484;84;21004;-71
2022/06/21 10:21:31;;;;;;;7.47;2.70;;;;;;;37.87;35.91;99516.21;1677361;84;21089;-71
2022/06/21 10:24:40;;;;;;;4.45;2.67;;;;;;;37.85;35.54;99518.36;1686670;84;21162;-71
2022/06/21 10:27:24;;;;;;;4.00;2.60;;;;;;;38.04;35.14;99519.40;1685001;85;21013;-71
2022/06/21 10:30:39;;;;;;;4.08;2.90;;;;;;;38.02;34.90;99514.84;1686692;84;21040;-71
2022/06/21 10:33:44;;;;;;;3.42;2.67;;;;;;;38.09;36.44;99517.25;1691852;84;21089;-71
2022/06/21 10:36:28;;;;;;;5.45;2.72;;;;;;;38.00;34.57;99511.62;1687693;84;21709;-71
2022/06/21 10:39:19;;;;;;;3.08;2.70;;;;;;;37.90;34.72;99502.25;1692827;83;21150;-71
2022/06/21 10:45:35;;;;;;;2.77;2.58;;;;;;;38.19;35.15;99504.33;1689489;84;21016;-71
2022/06/21 10:48:35;;;;;;;6.62;2.50;;;;;;;38.37;34.87;99498.87;1692706;84;21027;-71
2022/06/21 10:51:34;;;;;;;8.68;3.08;;;;;;;38.42;34.62;99491.56;1695332;84;21059;-71
2022/06/21 10:54:22;;;;;;;5.28;2.98;;;;;;;38.38;35.63;99494.54;1692510;84;21090;-71
2022/06/21 10:57:16;;;;;;;9.53;2.92;;;;;;;38.25;35.23;99485.75;1688365;83;21091;-71
2022/06/21 11:03:00;;;;;;;4.58;2.58;;;;;;;38.83;34.37;99473.05;1690601;84;21027;-71
2022/06/21 11:05:59;;;;;;;3.72;2.83;;;;;;;38.89;34.70;99470.58;1689387;84;21094;-71
2022/06/21 11:09:05;;;;;;;5.80;2.80;;;;;;;38.56;34.81;99468.92;1692805;84;21109;-71
2022/06/21 11:11:56;;;;;;;3.10;2.77;;;;;;;38.59;35.91;99471.08;1689619;84;21094;-71
2022/06/21 11:14:38;;;;;;;2.85;2.55;;;;;;;38.61;35.97;99462.19;1694939;84;21075;-71
2022/06/21 11:17:19;;;;;;;5.97;2.90;;;;;;;38.67;33.23;99456.23;1692387;84;21099;-71
2022/06/21 11:20:04;;;;;;;4.25;2.87;;;;;;;38.69;33.29;99448.69;1691829;84;21091;-71
2022/06/21 11:23:04;;;;;;;4.00;3.20;;;;;;;39.04;34.11;99455.70;1679381;84;21158;-71
2022/06/21 11:25:46;;;;;;;7.00;3.15;;;;;;;38.92;33.22;99453.89;1683489;84;21032;-71
2022/06/21 11:28:54;;;;;;;3.52;3.00;;;;;;;39.43;34.43;99453.47;1681719;84;21099;-71
2022/06/21 11:32:00;;;;;;;4.17;2.70;;;;;;;39.08;33.87;99450.56;1682740;84;21531;-71
2022/06/21 11:34:53;;;;;;;4.75;2.83;;;;;;;39.21;34.84;99453.92;1679217;85;21087;-71
2022/06/21 11:37:32;;;;;;;4.00;2.90;;;;;;;39.18;32.16;99440.25;1681650;84;21127;-71
2022/06/21 11:40:35;;;;;;;5.53;2.52;;;;;;;39.01;33.87;99435.27;1681950;84;21043;-72
2022/06/21 11:43:03;;;;;;;3.85;2.60;;;;;;;38.75;33.15;99434.64;1678389;84;21024;-71
2022/06/21 11:45:50;;;;;;;4.10;2.50;;;;;;;39.11;33.09;99428.45;1681218;84;21016;-71
2022/06/21 11:48:41;;;;;;;3.22;2.37;;;;;;;39.00;31.93;99425.05;1683537;85;21052;-71
2022/06/21 11:51:24;;;;;;;5.53;2.70;;;;;;;38.98;33.49;99422.39;1679849;85;21016;-71
2022/06/21 11:54:18;;;;;;;5.08;2.62;;;;;;;39.12;33.72;99420.65;1676283;84;21096;-71
2022/06/21 11:57:31;;;;;;;3.22;2.40;;;;;;;39.45;33.20;99412.80;1681656;85;21045;-71
2022/06/21 12:00:15;;;;;;;3.23;2.57;;;;;;;39.18;32.94;99407.40;1677888;85;21531;-71
2022/06/21 12:03:02;;;;;;;8.20;2.40;;;;;;;39.04;32.78;99403.77;1680418;85;21580;-71
2022/06/21 12:05:51;;;;;;;5.78;2.27;;;;;;;39.18;33.40;99405.26;1681833;84;21072;-72
2022/06/21 12:08:29;;;;;;;2.55;2.35;;;;;;;39.24;33.60;99404.91;1684233;84;21800;-71
2022/06/21 12:11:04;;;;;;;5.55;2.70;;;;;;;39.44;31.41;99397.20;1680642;85;21064;-71
2022/06/21 12:13:58;;;;;;;5.30;2.45;;;;;;;39.66;34.08;99391.81;1685732;84;21088;-71
2022/06/21 12:16:45;;;;;;;4.08;2.52;;;;;;;39.75;32.00;99401.42;1680341;84;21087;-71
2022/06/21 12:19:22;;;;;;;10.80;2.52;;;;;;;39.79;32.86;99392.47;1679624;84;21200;-71
2022/06/21 12:22:04;;;;;;;6.55;2.72;;;;;;;39.40;31.80;99384.02;1681069;84;22704;-71
2022/06/21 12:24:33;;;;;;;4.17;2.40;;;;;;;39.83;32.77;99385.97;1683279;85;21076;-71
2022/06/21 12:27:01;;;;;;;3.08;2.50;;;;;;;39.99;32.10;99381.20;1674730;84;21048;-71
2022/06/21 12:29:29;;;;;;;4.37;2.40;;;;;;;39.45;31.43;99378.59;1674827;84;21049;-71
2022/06/21 12:32:00;;;;;;;5.50;2.50;;;;;;;39.55;31.02;99374.98;1682185;84;21082;-71
2022/06/21 12:34:51;;;;;;;5.20;2.58;;;;;;;39.68;31.41;99371.33;1683222;84;21102;-71
2022/06/21 12:37:30;;;;;;;5.37;2.27;;;;;;;39.89;31.27;99364.62;1677113;84;21092;-71
2022/06/21 12:40:25;;;;;;;3.22;2.67;;;;;;;39.83;31.87;99365.20;1682868;84;21080;-71
2022/06/21 12:43:24;;;;;;;5.62;2.60;;;;;;;39.98;32.41;99360.17;1683536;84;21186;-71
2022/06/21 12:46:06;;;;;;;4.92;2.22;;;;;;;40.02;30.87;99361.75;1684106;84;21336;-71
2022/06/21 12:48:57;;;;;;;4.40;2.58;;;;;;;39.63;31.36;99358.73;1686216;85;21532;-71
2022/06/21 12:51:53;;;;;;;2.72;2.35;;;;;;;39.90;31.65;99350.59;1685155;84;21044;-71
2022/06/21 12:54:48;;;;;;;6.12;2.33;;;;;;;39.56;32.59;99352.36;1678497;84;21064;-71
2022/06/21 12:57:27;;;;;;;4.35;2.60;;;;;;;40.06;31.74;99351.98;1678381;85;21099;-71
2022/06/21 13:00:12;;;;;;;4.67;2.60;;;;;;;39.65;31.74;99343.09;1685654;84;21051;-72